Time;durP1;ratioP1;P1;durP2;ratioP2;P2;SDS_P1;SDS_P2;PMS_P1;PMS_P2;Temp;Humidity;BMP_temperature;BMP_pressure;BME280_temperature;BME280_humidity;BME280_pressure;Samples;Min_cycle;Max_cycle;Signal;HPM_P1;HPM_P2
2022/09/06 00:03:58;;;;;;;1999.90;999.90;;;;;;;18.82;87.24;99384.50;8364184;28;20073;-77
2022/09/06 00:08:04;;;;;;;1999.90;999.90;;;;;;;18.82;87.24;99379.25;8385018;28;20040;-78
2022/09/06 00:12:12;;;;;;;1999.90;999.90;;;;;;;18.79;87.80;99379.34;8349562;28;20622;-77
2022/09/06 00:16:23;;;;;;;1999.90;999.90;;;;;;;18.72;88.50;99402.41;8384267;28;20037;-78
2022/09/06 00:20:31;;;;;;;1999.90;999.90;;;;;;;18.65;89.04;99414.06;8380237;28;21735;-78
2022/09/06 00:24:33;;;;;;;1999.90;999.90;;;;;;;18.66;89.57;99413.16;8347495;28;20033;-78
2022/09/06 00:28:34;;;;;;;1999.90;999.90;;;;;;;18.66;89.83;99405.25;8378205;28;20671;-78
2022/09/06 00:32:42;;;;;;;1999.90;999.90;;;;;;;18.64;89.83;99386.91;8348549;28;20054;-77
2022/09/06 00:36:44;;;;;;;1999.90;999.90;;;;;;;18.67;90.27;99376.28;8339525;28;20061;-77
2022/09/06 00:40:51;;;;;;;1999.90;999.90;;;;;;;18.64;90.20;99359.75;8323273;28;20080;-77
2022/09/06 00:45:00;;;;;;;1999.90;999.90;;;;;;;18.63;90.12;99348.38;8331879;28;20054;-76
2022/09/06 00:49:08;;;;;;;1999.90;999.90;;;;;;;18.63;90.24;99345.75;8333175;28;20077;-78
2022/09/06 00:53:09;;;;;;;1999.90;999.90;;;;;;;18.64;91.00;99336.94;8337591;28;20045;-77
2022/09/06 00:57:18;;;;;;;1999.90;999.90;;;;;;;18.64;90.75;99328.19;8336658;28;20227;-77
2022/09/06 01:01:19;;;;;;;1999.90;999.90;;;;;;;18.61;90.19;99291.47;8336784;28;20068;-77
2022/09/06 01:05:28;;;;;;;1999.90;999.90;;;;;;;18.58;89.72;99296.84;8339588;28;20500;-77
2022/09/06 01:09:33;;;;;;;1999.90;999.90;;;;;;;18.56;90.14;99309.19;8322164;28;20037;-77
2022/09/06 01:13:52;;;;;;;1999.90;999.90;;;;;;;18.50;90.12;99326.06;8351027;28;20189;-77
2022/09/06 01:18:13;;;;;;;1999.90;999.90;;;;;;;18.51;90.07;99316.41;8319571;28;20362;-76
2022/09/06 01:22:39;;;;;;;1999.90;999.90;;;;;;;18.48;89.82;99330.50;8329946;28;20133;-76
2022/09/06 01:27:32;;;;;;;1999.90;999.90;;;;;;;18.31;89.73;99333.78;8332849;28;20052;-77
2022/09/06 01:31:46;;;;;;;1999.90;999.90;;;;;;;18.16;90.76;99341.38;8322819;28;20207;-77
2022/09/06 01:36:03;;;;;;;1999.90;999.90;;;;;;;18.00;91.71;99336.66;8373990;28;20093;-77
2022/09/06 01:40:05;;;;;;;1999.90;999.90;;;;;;;17.97;91.91;99333.28;8396412;28;20800;-77
2022/09/06 01:44:06;;;;;;;1999.90;999.90;;;;;;;17.91;91.88;99342.22;8393107;28;20040;-77
2022/09/06 01:48:15;;;;;;;1999.90;999.90;;;;;;;17.81;92.17;99340.84;8395487;28;20131;-76
2022/09/06 01:52:28;;;;;;;1999.90;999.90;;;;;;;17.72;91.28;99335.88;8381884;28;20044;-77
2022/09/06 01:57:02;;;;;;;1999.90;999.90;;;;;;;17.51;92.35;99340.06;8385123;28;20139;-76
2022/09/06 02:01:15;;;;;;;1999.90;999.90;;;;;;;17.52;92.71;99333.91;8321071;28;20087;-76
2022/09/06 02:05:32;;;;;;;1999.90;999.90;;;;;;;17.43;92.79;99321.09;8371466;28;20125;-76
2022/09/06 02:09:42;;;;;;;1999.90;999.90;;;;;;;17.33;92.64;99323.16;8357060;28;20040;-76
2022/09/06 02:13:52;;;;;;;1999.90;999.90;;;;;;;17.26;93.18;99324.28;8385853;28;20052;-77
2022/09/06 02:18:03;;;;;;;1999.90;999.90;;;;;;;17.14;92.63;99328.16;8378388;28;20048;-76
2022/09/06 02:22:08;;;;;;;1999.90;999.90;;;;;;;17.10;93.69;99337.03;8383435;28;20132;-76
2022/09/06 02:26:16;;;;;;;1999.90;999.90;;;;;;;17.06;93.44;99368.66;8375236;28;20037;-76
2022/09/06 02:30:18;;;;;;;1999.90;999.90;;;;;;;16.93;94.59;99360.31;8379346;28;20119;-77
2022/09/06 02:34:20;;;;;;;1999.90;999.90;;;;;;;16.98;95.50;99362.78;8359544;28;20114;-76
2022/09/06 02:38:23;;;;;;;1999.90;999.90;;;;;;;17.01;95.67;99363.53;8378783;28;20063;-76
2022/09/06 02:42:25;;;;;;;1999.90;999.90;;;;;;;17.00;94.92;99353.97;8374741;28;20064;-77
2022/09/06 02:46:27;;;;;;;1999.90;999.90;;;;;;;16.99;94.97;99364.50;8377761;28;20028;-76
2022/09/06 02:50:35;;;;;;;1999.90;999.90;;;;;;;16.88;94.77;99356.97;8387646;28;20045;-76
2022/09/06 02:54:44;;;;;;;1999.90;999.90;;;;;;;16.88;94.56;99355.22;8376034;28;20131;-77
2022/09/06 02:58:46;;;;;;;1999.90;999.90;;;;;;;16.81;94.44;99348.41;8379277;28;21366;-77
2022/09/06 03:02:54;;;;;;;1999.90;999.90;;;;;;;16.77;94.04;99341.56;8371223;28;20487;-77
2022/09/06 03:06:56;;;;;;;1999.90;999.90;;;;;;;16.74;93.72;99349.53;8371841;28;20068;-77
2022/09/06 03:10:58;;;;;;;1999.90;999.90;;;;;;;16.62;93.63;99353.31;8367820;28;20079;-77
2022/09/06 03:15:07;;;;;;;1999.90;999.90;;;;;;;16.48;93.63;99355.47;8378965;28;20139;-76
2022/09/06 03:19:08;;;;;;;1999.90;999.90;;;;;;;16.46;94.19;99357.28;8350936;28;20074;-77
2022/09/06 03:23:10;;;;;;;1999.90;999.90;;;;;;;16.49;95.07;99358.97;8367201;28;20461;-77
2022/09/06 03:27:11;;;;;;;1999.90;999.90;;;;;;;16.50;95.30;99360.69;8374041;28;20041;-77
2022/09/06 03:31:20;;;;;;;1999.90;999.90;;;;;;;16.41;95.17;99368.81;8374237;28;20036;-77
2022/09/06 03:35:21;;;;;;;1999.90;999.90;;;;;;;16.45;95.52;99375.69;8362008;28;20397;-77
2022/09/06 03:39:29;;;;;;;1999.90;999.90;;;;;;;16.46;95.32;99377.41;8355134;28;20074;-77
2022/09/06 03:43:31;;;;;;;1999.90;999.90;;;;;;;16.48;95.15;99375.59;8389190;28;20045;-77
2022/09/06 03:47:32;;;;;;;1999.90;999.90;;;;;;;16.49;95.21;99364.22;8380034;28;20540;-77
2022/09/06 03:51:34;;;;;;;1999.90;999.90;;;;;;;16.47;94.85;99364.25;8391106;28;20040;-77
2022/09/06 03:55:35;;;;;;;1999.90;999.90;;;;;;;16.38;94.43;99366.28;8394177;28;20741;-77
2022/09/06 03:59:37;;;;;;;1999.90;999.90;;;;;;;16.22;94.11;99368.47;8403078;28;20058;-77
2022/09/06 04:03:39;;;;;;;1999.90;999.90;;;;;;;16.15;94.08;99370.38;8372269;28;20348;-77
2022/09/06 04:07:41;;;;;;;1999.90;999.90;;;;;;;16.10;94.21;99355.72;8379560;28;20068;-77
2022/09/06 04:11:50;;;;;;;1999.90;999.90;;;;;;;16.03;94.11;99352.41;8397426;28;20071;-77
2022/09/06 04:15:51;;;;;;;1999.90;999.90;;;;;;;15.97;94.80;99349.94;8383487;28;20076;-77
2022/09/06 04:20:00;;;;;;;1999.90;999.90;;;;;;;15.91;94.85;99358.81;8370272;28;20036;-77
2022/09/06 04:24:01;;;;;;;1999.90;999.90;;;;;;;15.80;94.66;99360.88;8374592;28;20126;-77
2022/09/06 04:28:03;;;;;;;1999.90;999.90;;;;;;;15.78;95.38;99367.88;8397428;28;20059;-77
2022/09/06 04:32:05;;;;;;;1999.90;999.90;;;;;;;15.82;95.65;99361.69;8386487;28;20040;-77
2022/09/06 04:36:09;;;;;;;1999.90;999.90;;;;;;;15.78;95.45;99357.41;8348196;28;20049;-77
2022/09/06 04:40:10;;;;;;;1999.90;999.90;;;;;;;15.76;95.76;99356.59;8347713;28;20076;-77
2022/09/06 04:44:12;;;;;;;1999.90;999.90;;;;;;;15.75;95.54;99356.66;8331259;28;20052;-77
2022/09/06 04:48:14;;;;;;;1999.90;999.90;;;;;;;15.74;94.96;99358.41;8334730;28;20083;-77
2022/09/06 04:52:16;;;;;;;1999.90;999.90;;;;;;;15.67;94.85;99367.31;8335781;28;20065;-77
2022/09/06 04:56:23;;;;;;;1999.90;999.90;;;;;;;15.63;94.72;99379.63;8334539;28;20067;-77
2022/09/06 05:00:26;;;;;;;1999.90;999.90;;;;;;;15.62;95.32;99380.53;8333856;28;20048;-77
2022/09/06 05:04:34;;;;;;;1999.90;999.90;;;;;;;15.64;95.80;99383.13;8325696;28;20464;-77
2022/09/06 05:08:37;;;;;;;1999.90;999.90;;;;;;;15.71;95.81;99376.81;8332728;28;20075;-77
2022/09/06 05:12:50;;;;;;;1999.90;999.90;;;;;;;15.78;95.83;99367.03;8335307;28;20060;-77
2022/09/06 05:16:53;;;;;;;1999.90;999.90;;;;;;;15.85;96.25;99358.13;8330439;28;20033;-77
2022/09/06 05:21:01;;;;;;;1999.90;999.90;;;;;;;15.86;95.76;99362.47;8345225;28;20072;-77
2022/09/06 05:25:02;;;;;;;1999.90;999.90;;;;;;;15.87;95.21;99369.44;8348005;28;20844;-77
2022/09/06 05:29:04;;;;;;;1999.90;999.90;;;;;;;15.87;96.04;99365.06;8349916;28;20686;-77
2022/09/06 05:33:10;;;;;;;1999.90;999.90;;;;;;;15.98;95.88;99368.25;8315840;28;20316;-78
2022/09/06 05:37:12;;;;;;;1999.90;999.90;;;;;;;16.01;95.75;99369.94;8361927;28;20385;-76
2022/09/06 05:41:13;;;;;;;1999.90;999.90;;;;;;;16.05;96.54;99374.19;8367152;28;20064;-77
2022/09/06 05:45:15;;;;;;;1999.90;999.90;;;;;;;16.11;96.17;99378.38;8369843;28;20457;-77
2022/09/06 05:49:17;;;;;;;;;;;;;;;16.17;96.31;99380.84;8365534;28;20074;-77
2022/09/06 05:53:18;;;;;;;1999.90;999.90;;;;;;;16.29;97.00;99385.75;8364587;28;19977;-77
2022/09/06 05:57:20;;;;;;;1999.90;999.90;;;;;;;16.37;96.31;99399.50;8393906;28;20064;-77
2022/09/06 06:01:27;;;;;;;1999.90;999.90;;;;;;;16.37;96.27;99394.25;8366572;28;20040;-77
2022/09/06 06:05:28;;;;;;;1999.90;999.90;;;;;;;16.39;96.00;99397.69;8346090;28;20056;-77
2022/09/06 06:09:30;;;;;;;1999.90;999.90;;;;;;;16.45;95.99;99399.28;8356853;28;20172;-77
2022/09/06 06:13:35;;;;;;;1999.90;999.90;;;;;;;16.53;96.68;99386.84;8364865;28;20311;-77
2022/09/06 06:17:44;;;;;;;1999.90;999.90;;;;;;;16.59;96.22;99376.16;8384229;28;20044;-77
2022/09/06 06:21:45;;;;;;;1999.90;999.90;;;;;;;16.56;95.64;99390.22;8377960;28;20083;-77
2022/09/06 06:25:47;;;;;;;1999.90;999.90;;;;;;;16.52;94.89;99390.34;8375325;28;20335;-77
2022/09/06 06:29:49;;;;;;;1999.90;999.90;;;;;;;16.51;94.79;99383.38;8358567;28;20842;-77
2022/09/06 06:33:50;;;;;;;1999.90;999.90;;;;;;;16.51;95.02;99393.84;8386791;28;20087;-75
2022/09/06 06:37:52;;;;;;;1999.90;999.90;;;;;;;16.60;95.22;99389.22;8368151;28;20077;-75
2022/09/06 06:41:54;;;;;;;1999.90;999.90;;;;;;;16.66;95.31;99385.56;8359550;28;20056;-77
2022/09/06 06:45:55;;;;;;;1999.90;999.90;;;;;;;16.87;95.14;99387.56;8354036;28;20302;-77
2022/09/06 06:49:57;;;;;;;1999.90;999.90;;;;;;;17.22;94.42;99383.84;8347858;28;20127;-77
2022/09/06 06:53:59;;;;;;;1999.90;999.90;;;;;;;17.40;93.64;99378.94;8352377;28;20128;-78
2022/09/06 06:58:00;;;;;;;1999.90;999.90;;;;;;;17.72;92.52;99377.91;8364797;28;20041;-77
2022/09/06 07:02:09;;;;;;;1999.90;999.90;;;;;;;18.26;90.45;99375.13;8395604;28;20393;-78
2022/09/06 07:06:10;;;;;;;1999.90;999.90;;;;;;;18.74;88.11;99368.16;8377713;28;20040;-79
2022/09/06 07:10:13;;;;;;;1999.90;999.90;;;;;;;19.17;86.00;99362.94;8375884;28;20044;-78
2022/09/06 07:14:35;;;;;;;1999.90;999.90;;;;;;;19.65;85.21;99372.44;8387268;28;20052;-79
2022/09/06 07:18:40;;;;;;;1999.90;999.90;;;;;;;20.09;83.92;99380.22;8345976;28;20300;-79
2022/09/06 07:22:42;;;;;;;1999.90;999.90;;;;;;;20.51;82.30;99367.81;8351422;28;20048;-79
2022/09/06 07:26:44;;;;;;;1999.90;999.90;;;;;;;20.87;80.47;99376.75;8358128;28;20349;-79
2022/09/06 07:31:12;;;;;;;1999.90;999.90;;;;;;;21.08;78.78;99389.78;8364774;28;20644;-79
2022/09/06 07:35:33;;;;;;;1999.90;999.90;;;;;;;21.36;77.81;99388.47;8327292;28;20053;-79
2022/09/06 07:39:35;;;;;;;1999.90;999.90;;;;;;;21.68;77.25;99377.19;8339435;28;20044;-78
2022/09/06 07:43:37;;;;;;;1999.90;999.90;;;;;;;21.95;74.67;99376.75;8349240;28;20469;-77
2022/09/06 07:47:53;;;;;;;1999.90;999.90;;;;;;;22.14;74.79;99366.97;8339684;28;20044;-78
2022/09/06 07:51:57;;;;;;;1999.90;999.90;;;;;;;22.30;73.45;99372.31;8329824;28;20044;-78
2022/09/06 07:56:02;;;;;;;1999.90;999.90;;;;;;;22.39;73.80;99378.88;8320967;28;20037;-79
2022/09/06 08:00:18;;;;;;;1999.90;999.90;;;;;;;22.44;73.68;99376.84;8303568;28;20049;-80
2022/09/06 08:04:40;;;;;;;1999.90;999.90;;;;;;;22.60;73.65;99367.16;8344480;28;20432;-79
2022/09/06 08:09:01;;;;;;;1999.90;999.90;;;;;;;22.84;72.63;99372.97;8333674;28;20041;-80
2022/09/06 08:13:28;;;;;;;1999.90;999.90;;;;;;;23.12;71.64;99374.91;8353187;28;20047;-80
2022/09/06 08:17:37;;;;;;;1999.90;999.90;;;;;;;23.29;71.27;99374.81;8356208;28;20041;-80
2022/09/06 08:22:14;;;;;;;1999.90;999.90;;;;;;;23.59;70.57;99371.41;8349594;28;20053;-80
2022/09/06 08:26:49;;;;;;;1999.90;999.90;;;;;;;24.03;69.78;99369.63;8349965;28;20617;-80
2022/09/06 08:31:12;;;;;;;1999.90;999.90;;;;;;;23.99;68.73;99380.50;8352490;28;20542;-80
2022/09/06 08:35:45;;;;;;;1999.90;999.90;;;;;;;24.13;68.50;99382.34;8363876;28;20549;-80
2022/09/06 08:40:06;;;;;;;1999.90;999.90;;;;;;;24.45;67.97;99383.09;8390569;28;20060;-80
2022/09/06 08:44:36;;;;;;;1999.90;999.90;;;;;;;24.69;65.71;99376.25;8378518;28;20052;-80
2022/09/06 08:49:00;;;;;;;1999.90;999.90;;;;;;;25.02;65.92;99375.09;8373063;28;20115;-79
2022/09/06 08:53:13;;;;;;;1999.90;999.90;;;;;;;25.32;65.38;99374.94;8372600;28;20048;-80
2022/09/06 08:57:40;;;;;;;1999.90;999.90;;;;;;;25.50;63.94;99374.56;8362113;28;20635;-81
2022/09/06 09:02:06;;;;;;;1999.90;999.90;;;;;;;25.72;64.42;99386.47;8384037;28;20082;-80
2022/09/06 09:06:09;;;;;;;1999.90;999.90;;;;;;;25.88;63.28;99376.50;8380871;28;20040;-79
2022/09/06 09:10:20;;;;;;;1999.90;999.90;;;;;;;25.89;62.85;99371.09;8388692;28;20457;-81
2022/09/06 09:14:29;;;;;;;1999.90;999.90;;;;;;;26.13;63.06;99370.34;8363519;28;20113;-80
2022/09/06 09:18:37;;;;;;;1999.90;999.90;;;;;;;26.41;62.91;99372.84;8381151;28;20046;-80
2022/09/06 09:22:40;;;;;;;1999.90;999.90;;;;;;;26.56;61.76;99359.41;8392174;28;20059;-80
2022/09/06 09:26:56;;;;;;;1999.90;999.90;;;;;;;26.67;59.66;99354.19;8376284;28;20132;-80
2022/09/06 09:31:00;;;;;;;1999.90;999.90;;;;;;;26.69;60.06;99368.22;8378068;28;20060;-80
2022/09/06 09:35:32;;;;;;;1999.90;999.90;;;;;;;26.78;58.58;99362.25;8364070;28;20052;-80
2022/09/06 09:39:40;;;;;;;1999.90;999.90;;;;;;;26.98;59.88;99358.16;8372184;28;20056;-76
2022/09/06 09:44:04;;;;;;;1999.90;999.90;;;;;;;27.10;58.14;99354.63;8381620;28;20052;-77
2022/09/06 09:48:16;;;;;;;1999.90;999.90;;;;;;;27.13;56.83;99348.25;8394682;28;20374;-77
2022/09/06 09:52:31;;;;;;;1999.90;999.90;;;;;;;27.10;57.01;99349.28;8381429;28;20494;-77
2022/09/06 09:56:37;;;;;;;1999.90;999.90;;;;;;;27.21;55.73;99354.69;8367398;28;20104;-77
2022/09/06 10:00:41;;;;;;;1999.90;999.90;;;;;;;27.27;54.80;99348.03;8363712;28;20052;-77
2022/09/06 10:04:48;;;;;;;1999.90;999.90;;;;;;;27.26;54.24;99351.69;8391552;28;20111;-77
2022/09/06 10:08:51;;;;;;;1999.90;999.90;;;;;;;27.13;52.76;99343.75;8360396;28;20036;-78
2022/09/06 10:13:12;;;;;;;1999.90;999.90;;;;;;;27.44;53.57;99346.78;8406388;28;20139;-77
2022/09/06 10:17:19;;;;;;;1999.90;999.90;;;;;;;27.66;52.62;99342.47;8391644;28;20132;-78
2022/09/06 10:21:22;;;;;;;1999.90;999.90;;;;;;;27.84;52.17;99332.19;8358766;28;20040;-78
2022/09/06 10:25:53;;;;;;;1999.90;999.90;;;;;;;28.17;52.61;99333.22;8383055;28;20053;-78
2022/09/06 10:30:05;;;;;;;1999.90;999.90;;;;;;;28.09;50.18;99323.13;8372800;28;20060;-78
2022/09/06 10:34:32;;;;;;;1999.90;999.90;;;;;;;28.26;51.24;99321.84;8362673;28;20056;-78
2022/09/06 10:38:49;;;;;;;1999.90;999.90;;;;;;;28.25;50.15;99318.34;8365155;28;20057;-78
2022/09/06 10:42:53;;;;;;;1999.90;999.90;;;;;;;28.52;48.64;99311.78;8380858;28;20059;-78
2022/09/06 10:47:14;;;;;;;1999.90;999.90;;;;;;;28.70;47.41;99314.78;8365218;28;20167;-76
2022/09/06 10:51:30;;;;;;;1999.90;999.90;;;;;;;28.87;47.04;99298.28;8364480;28;20151;-78
2022/09/06 10:55:31;;;;;;;1999.90;999.90;;;;;;;29.05;47.64;99293.25;8359698;28;20064;-78
2022/09/06 10:59:40;;;;;;;1999.90;999.90;;;;;;;29.12;46.35;99284.59;8373518;28;20044;-78
2022/09/06 11:03:43;;;;;;;1999.90;999.90;;;;;;;29.30;46.34;99273.34;8352766;28;20041;-78
2022/09/06 11:08:24;;;;;;;1999.90;999.90;;;;;;;29.51;45.80;99274.25;8356766;28;20048;-78
2022/09/06 11:12:57;;;;;;;1999.90;999.90;;;;;;;29.55;43.30;99275.69;8339845;28;20071;-78
2022/09/06 11:17:06;;;;;;;1999.90;999.90;;;;;;;29.63;43.64;99261.69;8332068;28;20037;-78
2022/09/06 11:21:13;;;;;;;1999.90;999.90;;;;;;;29.72;43.14;99258.19;8363156;28;20048;-77
2022/09/06 11:25:37;;;;;;;1999.90;999.90;;;;;;;29.84;42.56;99253.63;8375969;28;20033;-78
2022/09/06 11:29:43;;;;;;;1999.90;999.90;;;;;;;29.97;41.96;99246.22;8380077;28;20045;-78
2022/09/06 11:33:44;;;;;;;1999.90;999.90;;;;;;;30.12;42.07;99249.41;8337577;28;20098;-77
2022/09/06 11:37:56;;;;;;;1999.90;999.90;;;;;;;30.21;41.34;99248.63;8365321;28;20045;-78
2022/09/06 11:41:57;;;;;;;1999.90;999.90;;;;;;;30.35;40.17;99248.25;8386943;28;20598;-78
2022/09/06 11:46:06;;;;;;;1999.90;999.90;;;;;;;30.43;40.16;99247.56;8362832;28;20068;-78
2022/09/06 11:50:20;;;;;;;1999.90;999.90;;;;;;;30.45;38.77;99249.13;8379453;28;20046;-78
2022/09/06 11:54:29;;;;;;;1999.90;999.90;;;;;;;29.96;38.07;99239.16;8381464;28;20068;-78
2022/09/06 11:58:40;;;;;;;1999.90;999.90;;;;;;;30.19;39.64;99235.38;8376700;28;20115;-78
2022/09/06 12:02:49;;;;;;;1999.90;999.90;;;;;;;30.45;38.66;99233.03;8385487;28;20457;-78
2022/09/06 12:07:11;;;;;;;1999.90;999.90;;;;;;;30.72;38.15;99234.28;8396379;28;20487;-77
2022/09/06 12:11:25;;;;;;;1999.90;999.90;;;;;;;30.91;38.15;99226.25;8337116;28;20468;-77
2022/09/06 12:15:50;;;;;;;1999.90;999.90;;;;;;;30.83;37.88;99228.78;8365247;28;20045;-78
2022/09/06 12:19:53;;;;;;;;;;;;;;;30.36;36.49;99239.25;8363924;28;20040;-78
2022/09/06 12:23:55;;;;;;;1999.90;999.90;;;;;;;30.19;38.96;99230.00;8402357;28;19924;-77
2022/09/06 12:27:59;;;;;;;1999.90;999.90;;;;;;;30.09;37.92;99223.75;8355653;28;20041;-78
2022/09/06 12:32:04;;;;;;;1999.90;999.90;;;;;;;30.21;37.58;99214.66;8357327;28;20128;-77
2022/09/06 12:36:23;;;;;;;1999.90;999.90;;;;;;;30.67;37.63;99208.72;8326469;28;20048;-77
2022/09/06 12:40:28;;;;;;;1999.90;999.90;;;;;;;30.76;37.28;99212.41;8302459;28;20448;-77
2022/09/06 12:44:41;;;;;;;1999.90;999.90;;;;;;;30.44;36.52;99201.88;8315252;28;20049;-78
2022/09/06 12:49:02;;;;;;;1999.90;999.90;;;;;;;30.60;37.74;99204.03;8335509;28;20080;-78
2022/09/06 12:53:21;;;;;;;1999.90;999.90;;;;;;;30.74;37.21;99200.13;8339774;28;20188;-77
2022/09/06 12:57:25;;;;;;;1999.90;999.90;;;;;;;30.82;36.55;99190.38;8322527;28;20041;-78
2022/09/06 13:01:34;;;;;;;1999.90;999.90;;;;;;;30.82;35.69;99184.19;8325391;28;20132;-77
2022/09/06 13:05:41;;;;;;;1999.90;999.90;;;;;;;30.95;35.11;99182.06;8341287;28;20111;-77
2022/09/06 13:09:46;;;;;;;1999.90;999.90;;;;;;;31.13;34.73;99190.25;8346663;28;20059;-77
2022/09/06 13:13:54;;;;;;;1999.90;999.90;;;;;;;31.10;34.61;99175.31;8353005;28;20044;-77
2022/09/06 13:18:18;;;;;;;1999.90;999.90;;;;;;;30.82;33.45;99176.13;8334455;28;20124;-77
2022/09/06 13:23:07;;;;;;;1999.90;999.90;;;;;;;30.71;35.28;99169.09;8338645;28;20041;-77
2022/09/06 13:27:26;;;;;;;1999.90;999.90;;;;;;;30.88;34.76;99163.03;8283106;28;20068;-77
2022/09/06 13:31:28;;;;;;;1999.90;999.90;;;;;;;30.85;33.96;99160.59;8321396;28;20041;-76
2022/09/06 13:35:34;;;;;;;1999.90;999.90;;;;;;;30.94;35.09;99151.72;8344963;28;20060;-77
2022/09/06 13:39:39;;;;;;;1999.90;999.90;;;;;;;30.91;36.29;99143.97;8387131;28;20052;-77
2022/09/06 13:43:43;;;;;;;1999.90;999.90;;;;;;;30.74;36.04;99138.47;8336458;28;20119;-75
2022/09/06 13:47:45;;;;;;;1999.90;999.90;;;;;;;30.61;35.75;99136.03;8356453;28;20047;-78
2022/09/06 13:51:46;;;;;;;1999.90;999.90;;;;;;;30.45;36.00;99133.03;8368572;28;20087;-77
2022/09/06 13:55:48;;;;;;;1999.90;999.90;;;;;;;30.51;37.45;99127.13;8341001;28;20040;-77
2022/09/06 13:59:50;;;;;;;1999.90;999.90;;;;;;;30.74;37.00;99120.56;8349396;28;20044;-77
2022/09/06 14:03:52;;;;;;;1999.90;999.90;;;;;;;31.01;36.41;99119.81;8337760;28;20136;-77
2022/09/06 14:07:53;;;;;;;1999.90;999.90;;;;;;;31.05;35.55;99120.38;8369960;28;20446;-77
2022/09/06 14:11:55;;;;;;;1999.90;999.90;;;;;;;30.94;36.25;99113.34;8383288;28;20131;-77
2022/09/06 14:15:57;;;;;;;1999.90;999.90;;;;;;;30.80;36.34;99111.09;8370225;28;20154;-77
2022/09/06 14:19:58;;;;;;;1999.90;999.90;;;;;;;30.51;36.48;99109.22;8368861;28;20156;-77
2022/09/06 14:24:01;;;;;;;1999.90;999.90;;;;;;;30.66;37.73;99107.84;8346944;28;20043;-77
2022/09/06 14:28:05;;;;;;;1999.90;999.90;;;;;;;30.96;36.81;99109.53;8360488;28;20094;-78
2022/09/06 14:32:06;;;;;;;1999.90;999.90;;;;;;;30.80;35.56;99101.22;8370828;28;20083;-78
2022/09/06 14:36:13;;;;;;;1999.90;999.90;;;;;;;30.95;36.36;99090.91;8346117;28;20400;-78
2022/09/06 14:40:15;;;;;;;1999.90;999.90;;;;;;;31.12;34.76;99083.94;8348872;28;20049;-78
2022/09/06 14:44:23;;;;;;;1999.90;999.90;;;;;;;30.80;35.64;99092.31;8299160;28;20044;-77
2022/09/06 14:48:28;;;;;;;1999.90;999.90;;;;;;;30.31;34.47;99091.41;8352164;28;20072;-77
2022/09/06 14:52:30;;;;;;;1999.90;999.90;;;;;;;30.23;33.89;99078.75;8331848;28;20796;-77
2022/09/06 14:56:32;;;;;;;1999.90;999.90;;;;;;;30.26;34.40;99077.59;8312134;28;20051;-77
2022/09/06 15:00:33;;;;;;;1999.90;999.90;;;;;;;30.27;35.13;99073.94;8347342;28;20152;-77
2022/09/06 15:04:35;;;;;;;1999.90;999.90;;;;;;;30.52;35.47;99072.53;8312062;28;20103;-78
2022/09/06 15:08:37;;;;;;;1999.90;999.90;;;;;;;30.68;35.18;99071.00;8328661;28;20036;-78
2022/09/06 15:12:38;;;;;;;1999.90;999.90;;;;;;;30.84;35.10;99056.19;8314133;28;20083;-77
2022/09/06 15:16:41;;;;;;;1999.90;999.90;;;;;;;30.85;35.26;99052.50;8327400;28;20064;-77
2022/09/06 15:20:56;;;;;;;1999.90;999.90;;;;;;;30.90;35.88;99051.09;8331410;28;20045;-78
2022/09/06 15:24:57;;;;;;;1999.90;999.90;;;;;;;30.88;35.90;99034.31;8327960;28;20135;-78
2022/09/06 15:29:00;;;;;;;1999.90;999.90;;;;;;;31.04;36.80;99031.00;8330522;28;20780;-78
2022/09/06 15:33:02;;;;;;;1999.90;999.90;;;;;;;31.18;35.88;99027.91;8347942;28;20822;-77
2022/09/06 15:37:03;;;;;;;1999.90;999.90;;;;;;;31.17;35.02;99026.22;8334865;28;20140;-78
2022/09/06 15:41:10;;;;;;;1999.90;999.90;;;;;;;31.20;35.58;99027.75;8349549;28;20817;-77
2022/09/06 15:45:12;;;;;;;1999.90;999.90;;;;;;;31.23;35.91;99030.97;8328306;28;20140;-77
2022/09/06 15:49:25;;;;;;;1999.90;999.90;;;;;;;31.34;35.41;99023.75;8310769;28;20037;-78
2022/09/06 15:53:29;;;;;;;1999.90;999.90;;;;;;;31.44;36.39;99022.72;8313227;28;20075;-77
2022/09/06 15:57:30;;;;;;;1999.90;999.90;;;;;;;31.40;35.81;99026.69;8330921;28;20045;-77
2022/09/06 16:01:32;;;;;;;1999.90;999.90;;;;;;;31.38;36.02;99022.47;8330504;28;20051;-77
2022/09/06 16:05:34;;;;;;;1999.90;999.90;;;;;;;31.35;35.81;99022.75;8352614;28;20048;-77
2022/09/06 16:09:56;;;;;;;1999.90;999.90;;;;;;;31.38;36.80;99019.78;8324113;28;20064;-77
2022/09/06 16:13:58;;;;;;;1999.90;999.90;;;;;;;31.44;36.36;99024.56;8316041;28;20048;-77
2022/09/06 16:18:03;;;;;;;1999.90;999.90;;;;;;;31.45;34.80;99023.56;8315474;28;20069;-78
2022/09/06 16:22:05;;;;;;;1999.90;999.90;;;;;;;31.40;33.89;99026.69;8322029;28;20462;-77
2022/09/06 16:26:08;;;;;;;1999.90;999.90;;;;;;;31.52;34.02;99019.28;8340906;28;20657;-77
2022/09/06 16:30:09;;;;;;;1999.90;999.90;;;;;;;32.47;32.51;99022.34;8330692;28;20033;-77
2022/09/06 16:34:12;;;;;;;1999.90;999.90;;;;;;;31.72;33.05;99018.22;8352644;28;20052;-77
2022/09/06 16:38:20;;;;;;;1999.90;999.90;;;;;;;30.77;36.56;99021.06;8352724;28;20425;-77
2022/09/06 16:42:21;;;;;;;1999.90;999.90;;;;;;;30.11;37.53;99018.22;8317834;28;20051;-77
2022/09/06 16:46:25;;;;;;;1999.90;999.90;;;;;;;29.51;37.83;99009.34;8331989;28;20048;-76
2022/09/06 16:50:26;;;;;;;1999.90;999.90;;;;;;;29.12;39.29;99011.84;8331364;28;20765;-77
2022/09/06 16:54:29;;;;;;;1999.90;999.90;;;;;;;28.81;39.23;99002.91;8314505;28;20057;-78
2022/09/06 16:58:30;;;;;;;1999.90;999.90;;;;;;;28.54;39.69;99006.09;8336438;28;20040;-77
2022/09/06 17:02:32;;;;;;;1999.90;999.90;;;;;;;28.31;40.81;99011.69;8334217;28;20048;-77
2022/09/06 17:06:40;;;;;;;1999.90;999.90;;;;;;;28.01;41.11;99002.56;8332771;28;20742;-78
2022/09/06 17:10:49;;;;;;;1999.90;999.90;;;;;;;27.77;43.37;99001.88;8334828;28;20059;-77
2022/09/06 17:14:50;;;;;;;1999.90;999.90;;;;;;;27.49;44.71;99005.91;8332099;28;20144;-77
2022/09/06 17:18:52;;;;;;;1999.90;999.90;;;;;;;27.16;48.60;98991.63;8332731;28;20064;-77
2022/09/06 17:22:54;;;;;;;1999.90;999.90;;;;;;;26.80;51.32;98990.84;8331998;28;20598;-77
2022/09/06 17:26:55;;;;;;;;;;;;;;;26.47;52.06;98983.63;8351042;28;20044;-78
2022/09/06 17:31:00;;;;;;;1999.90;999.90;;;;;;;26.14;53.81;98979.00;8350611;28;20324;-77
2022/09/06 17:35:08;;;;;;;1999.90;999.90;;;;;;;25.81;54.20;98965.53;8341975;28;20146;-77
2022/09/06 17:39:13;;;;;;;1999.90;999.90;;;;;;;25.55;54.97;98960.28;8327824;28;20061;-77
2022/09/06 17:43:14;;;;;;;1999.90;999.90;;;;;;;25.32;55.37;98968.25;8344303;28;20059;-77
2022/09/06 17:47:16;;;;;;;1999.90;999.90;;;;;;;25.11;55.46;98960.81;8338139;28;20650;-77
2022/09/06 17:51:18;;;;;;;1999.90;999.90;;;;;;;24.88;56.43;98958.91;8334750;28;20136;-78
2022/09/06 17:55:20;;;;;;;1999.90;999.90;;;;;;;24.65;57.24;98955.19;8333308;28;20140;-78
2022/09/06 17:59:21;;;;;;;1999.90;999.90;;;;;;;24.30;57.99;98962.91;8318084;28;20077;-77
2022/09/06 18:03:38;;;;;;;1999.90;999.90;;;;;;;24.14;59.54;98970.16;8346887;28;20045;-77
2022/09/06 18:07:39;;;;;;;1999.90;999.90;;;;;;;23.98;60.92;98973.81;8332489;28;20772;-77
2022/09/06 18:11:47;;;;;;;1999.90;999.90;;;;;;;23.78;61.49;98977.78;8315550;28;20036;-76
2022/09/06 18:15:49;;;;;;;1999.90;999.90;;;;;;;23.63;62.72;98993.81;8334844;28;20101;-77
2022/09/06 18:19:58;;;;;;;1999.90;999.90;;;;;;;23.48;63.56;98985.88;8322707;28;20036;-77
2022/09/06 18:24:08;;;;;;;1999.90;999.90;;;;;;;23.36;64.00;98985.81;8321015;28;20044;-77